sensor_id;sensor_type;location;lat;lon;timestamp;pressure;altitude;pressure_sealevel;temperature;humidity
77871;BME280;67067;46.850;7.578;2023-01-28T00:00:02;95399.63;;;-1.47;47.34
77871;BME280;67067;46.850;7.578;2023-01-28T00:01:10;95401.41;;;-1.48;47.45
77871;BME280;67067;46.850;7.578;2023-01-28T00:02:13;95404.00;;;-1.48;47.28
77871;BME280;67067;46.850;7.578;2023-01-28T00:03:13;95401.44;;;-1.56;47.62
77871;BME280;67067;46.850;7.578;2023-01-28T00:04:16;95393.94;;;-1.51;47.71
77871;BME280;67067;46.850;7.578;2023-01-28T00:05:17;95403.53;;;-1.51;47.60
77871;BME280;67067;46.850;7.578;2023-01-28T00:06:18;95398.91;;;-1.64;47.88
77871;BME280;67067;46.850;7.578;2023-01-28T00:07:18;95407.28;;;-1.54;47.77
77871;BME280;67067;46.850;7.578;2023-01-28T00:08:19;95401.75;;;-1.51;47.48
77871;BME280;67067;46.850;7.578;2023-01-28T00:09:20;95400.59;;;-1.48;47.50
77871;BME280;67067;46.850;7.578;2023-01-28T00:10:20;95396.84;;;-1.46;47.39
77871;BME280;67067;46.850;7.578;2023-01-28T00:11:21;95397.47;;;-1.44;47.22
77871;BME280;67067;46.850;7.578;2023-01-28T00:12:24;95404.81;;;-1.47;47.26
77871;BME280;67067;46.850;7.578;2023-01-28T00:13:24;95400.59;;;-1.48;47.34
77871;BME280;67067;46.850;7.578;2023-01-28T00:14:25;95396.22;;;-1.48;47.41
77871;BME280;67067;46.850;7.578;2023-01-28T00:15:28;95392.63;;;-1.47;47.31
77871;BME280;67067;46.850;7.578;2023-01-28T00:16:31;95398.16;;;-1.50;47.31
77871;BME280;67067;46.850;7.578;2023-01-28T00:17:31;95406.31;;;-1.53;47.36
77871;BME280;67067;46.850;7.578;2023-01-28T00:18:32;95410.66;;;-1.54;47.52
77871;BME280;67067;46.850;7.578;2023-01-28T00:19:32;95400.75;;;-1.50;47.25
77871;BME280;67067;46.850;7.578;2023-01-28T00:20:33;95401.09;;;-1.53;47.36
77871;BME280;67067;46.850;7.578;2023-01-28T00:21:34;95398.84;;;-1.56;47.66
77871;BME280;67067;46.850;7.578;2023-01-28T00:22:35;95396.91;;;-1.54;47.54
77871;BME280;67067;46.850;7.578;2023-01-28T00:23:39;95399.00;;;-1.49;47.30
77871;BME280;67067;46.850;7.578;2023-01-28T00:24:39;95402.03;;;-1.46;47.26
77871;BME280;67067;46.850;7.578;2023-01-28T00:25:40;95396.13;;;-1.63;47.50
77871;BME280;67067;46.850;7.578;2023-01-28T00:26:43;95393.31;;;-1.53;47.41
77871;BME280;67067;46.850;7.578;2023-01-28T00:27:44;95390.38;;;-1.50;47.31
77871;BME280;67067;46.850;7.578;2023-01-28T00:28:44;95388.84;;;-1.67;47.65
77871;BME280;67067;46.850;7.578;2023-01-28T00:29:45;95395.31;;;-1.63;47.56
77871;BME280;67067;46.850;7.578;2023-01-28T00:30:46;95397.28;;;-1.65;47.71
77871;BME280;67067;46.850;7.578;2023-01-28T00:31:47;95392.72;;;-1.63;47.70
77871;BME280;67067;46.850;7.578;2023-01-28T00:32:47;95399.09;;;-1.74;47.88
77871;BME280;67067;46.850;7.578;2023-01-28T00:33:49;95393.41;;;-1.70;47.83
77871;BME280;67067;46.850;7.578;2023-01-28T00:34:50;95394.28;;;-1.54;47.52
77871;BME280;67067;46.850;7.578;2023-01-28T00:35:57;95389.94;;;-1.62;47.47
77871;BME280;67067;46.850;7.578;2023-01-28T00:37:00;95402.72;;;-1.52;47.45
77871;BME280;67067;46.850;7.578;2023-01-28T00:38:01;95401.94;;;-1.52;47.25
77871;BME280;67067;46.850;7.578;2023-01-28T00:39:05;95398.16;;;-1.50;47.14
77871;BME280;67067;46.850;7.578;2023-01-28T00:40:06;95394.28;;;-1.54;46.82
77871;BME280;67067;46.850;7.578;2023-01-28T00:41:11;95393.81;;;-1.58;47.13
77871;BME280;67067;46.850;7.578;2023-01-28T00:42:12;95395.28;;;-1.55;47.12
77871;BME280;67067;46.850;7.578;2023-01-28T00:43:12;95389.91;;;-1.54;47.07
77871;BME280;67067;46.850;7.578;2023-01-28T00:44:13;95400.75;;;-1.50;46.84
77871;BME280;67067;46.850;7.578;2023-01-28T00:45:15;95404.00;;;-1.48;46.92
77871;BME280;67067;46.850;7.578;2023-01-28T00:46:16;95395.56;;;-1.50;46.86
77871;BME280;67067;46.850;7.578;2023-01-28T00:47:18;95399.84;;;-1.57;46.97
77871;BME280;67067;46.850;7.578;2023-01-28T00:48:20;95400.63;;;-1.57;46.96
77871;BME280;67067;46.850;7.578;2023-01-28T00:49:21;95401.41;;;-1.48;46.91
77871;BME280;67067;46.850;7.578;2023-01-28T00:50:22;95404.47;;;-1.44;46.82
77871;BME280;67067;46.850;7.578;2023-01-28T00:51:26;95405.13;;;-1.42;46.71
77871;BME280;67067;46.850;7.578;2023-01-28T00:52:27;95401.69;;;-1.43;46.91
77871;BME280;67067;46.850;7.578;2023-01-28T00:53:28;95399.38;;;-1.37;46.78
77871;BME280;67067;46.850;7.578;2023-01-28T00:54:29;95391.44;;;-1.36;46.64
77871;BME280;67067;46.850;7.578;2023-01-28T00:55:29;95391.88;;;-1.32;46.62
77871;BME280;67067;46.850;7.578;2023-01-28T00:56:32;95390.16;;;-1.40;46.69
77871;BME280;67067;46.850;7.578;2023-01-28T00:57:33;95394.69;;;-1.34;46.49
77871;BME280;67067;46.850;7.578;2023-01-28T00:58:35;95391.44;;;-1.36;46.41
77871;BME280;67067;46.850;7.578;2023-01-28T00:59:36;95392.53;;;-1.30;46.24
77871;BME280;67067;46.850;7.578;2023-01-28T01:00:38;95389.47;;;-1.34;46.05
77871;BME280;67067;46.850;7.578;2023-01-28T01:01:41;95389.00;;;-1.37;46.13
77871;BME280;67067;46.850;7.578;2023-01-28T01:02:41;95392.88;;;-1.33;46.26
77871;BME280;67067;46.850;7.578;2023-01-28T01:03:46;95383.66;;;-1.36;46.32
77871;BME280;67067;46.850;7.578;2023-01-28T01:04:46;95384.44;;;-1.35;46.43
77871;BME280;67067;46.850;7.578;2023-01-28T01:05:58;95386.06;;;-1.34;46.59
77871;BME280;67067;46.850;7.578;2023-01-28T01:06:58;95387.81;;;-1.27;46.09
77871;BME280;67067;46.850;7.578;2023-01-28T01:07:59;95383.66;;;-1.36;46.12
77871;BME280;67067;46.850;7.578;2023-01-28T01:09:00;95390.63;;;-1.36;45.98
77871;BME280;67067;46.850;7.578;2023-01-28T01:10:01;95387.88;;;-1.35;45.94
77871;BME280;67067;46.850;7.578;2023-01-28T01:11:02;95386.34;;;-1.29;45.96
77871;BME280;67067;46.850;7.578;2023-01-28T01:12:05;95386.81;;;-1.26;45.86
77871;BME280;67067;46.850;7.578;2023-01-28T01:13:08;95394.44;;;-1.24;45.68
77871;BME280;67067;46.850;7.578;2023-01-28T01:14:09;95385.66;;;-1.23;45.65
77871;BME280;67067;46.850;7.578;2023-01-28T01:15:10;95390.53;;;-1.20;45.61
77871;BME280;67067;46.850;7.578;2023-01-28T01:16:14;95393.13;;;-1.20;45.31
77871;BME280;67067;46.850;7.578;2023-01-28T01:17:15;95389.88;;;-1.22;45.35
77871;BME280;67067;46.850;7.578;2023-01-28T01:18:16;95390.53;;;-1.20;45.61
77871;BME280;67067;46.850;7.578;2023-01-28T01:19:17;95391.34;;;-1.19;45.70
77871;BME280;67067;46.850;7.578;2023-01-28T01:20:21;95391.16;;;-1.18;45.41
77871;BME280;67067;46.850;7.578;2023-01-28T01:21:25;95387.94;;;-1.20;45.68
77871;BME280;67067;46.850;7.578;2023-01-28T01:22:28;95383.69;;;-1.21;45.51
77871;BME280;67067;46.850;7.578;2023-01-28T01:23:30;95387.41;;;-1.15;45.57
77871;BME280;67067;46.850;7.578;2023-01-28T01:24:33;95382.22;;;-1.15;45.74
77871;BME280;67067;46.850;7.578;2023-01-28T01:25:35;95378.28;;;-1.11;45.41
77871;BME280;67067;46.850;7.578;2023-01-28T01:26:38;95386.91;;;-1.11;45.53
77871;BME280;67067;46.850;7.578;2023-01-28T01:27:38;95381.69;;;-1.11;45.56
77871;BME280;67067;46.850;7.578;2023-01-28T01:28:39;95380.38;;;-1.06;45.40
77871;BME280;67067;46.850;7.578;2023-01-28T01:29:43;95386.63;;;-1.01;45.17
77871;BME280;67067;46.850;7.578;2023-01-28T01:30:47;95389.16;;;-1.07;45.35
77871;BME280;67067;46.850;7.578;2023-01-28T01:31:48;95387.47;;;-1.00;45.13
77871;BME280;67067;46.850;7.578;2023-01-28T01:32:48;95387.00;;;-1.04;45.16
77871;BME280;67067;46.850;7.578;2023-01-28T01:33:50;95388.44;;;-1.01;45.11
77871;BME280;67067;46.850;7.578;2023-01-28T01:34:51;95390.06;;;-1.00;45.20
77871;BME280;67067;46.850;7.578;2023-01-28T01:35:58;95386.47;;;-0.99;44.82
77871;BME280;67067;46.850;7.578;2023-01-28T01:36:59;95388.25;;;-1.00;45.07
77871;BME280;67067;46.850;7.578;2023-01-28T01:38:02;95385.22;;;-1.03;45.25
77871;BME280;67067;46.850;7.578;2023-01-28T01:39:05;95385.22;;;-1.03;44.76
77871;BME280;67067;46.850;7.578;2023-01-28T01:40:06;95393.00;;;-1.03;44.87
77871;BME280;67067;46.850;7.578;2023-01-28T01:41:08;95399.19;;;-1.04;45.04
77871;BME280;67067;46.850;7.578;2023-01-28T01:42:13;95398.84;;;-1.01;44.88
77871;BME280;67067;46.850;7.578;2023-01-28T01:43:19;95394.00;;;-1.04;44.91
77871;BME280;67067;46.850;7.578;2023-01-28T01:44:52;95398.72;;;-1.08;44.90
77871;BME280;67067;46.850;7.578;2023-01-28T01:45:57;95400.56;;;-1.17;45.07
77871;BME280;67067;46.850;7.578;2023-01-28T01:46:59;95398.72;;;-1.08;44.90
77871;BME280;67067;46.850;7.578;2023-01-28T01:48:32;95404.72;;;-1.07;44.75
77871;BME280;67067;46.850;7.578;2023-01-28T01:49:36;95404.38;;;-1.04;44.70
77871;BME280;67067;46.850;7.578;2023-01-28T01:50:41;95405.53;;;-1.07;44.68
77871;BME280;67067;46.850;7.578;2023-01-28T01:51:43;95393.06;;;-1.12;44.82
77871;BME280;67067;46.850;7.578;2023-01-28T01:52:51;95402.78;;;-1.05;44.76
77871;BME280;67067;46.850;7.578;2023-01-28T01:53:56;95401.16;;;-1.06;44.92
77871;BME280;67067;46.850;7.578;2023-01-28T01:55:02;95399.63;;;-1.01;44.78
77871;BME280;67067;46.850;7.578;2023-01-28T01:56:08;95396.59;;;-1.04;44.85
77871;BME280;67067;46.850;7.578;2023-01-28T01:57:17;95396.59;;;-1.04;44.73
77871;BME280;67067;46.850;7.578;2023-01-28T01:58:23;95398.84;;;-1.01;44.78
77871;BME280;67067;46.850;7.578;2023-01-28T01:59:28;95391.56;;;-1.06;44.47
77871;BME280;67067;46.850;7.578;2023-01-28T02:00:30;95403.41;;;-1.03;44.44
77871;BME280;67067;46.850;7.578;2023-01-28T02:01:33;95407.13;;;-1.06;44.57
77871;BME280;67067;46.850;7.578;2023-01-28T02:02:39;95403.75;;;-1.06;44.67
77871;BME280;67067;46.850;7.578;2023-01-28T02:04:02;95396.31;;;-1.09;44.73
77871;BME280;67067;46.850;7.578;2023-01-28T02:05:04;95398.50;;;-0.98;44.59
77871;BME280;67067;46.850;7.578;2023-01-28T02:06:05;95400.91;;;-0.97;44.50
77871;BME280;67067;46.850;7.578;2023-01-28T02:07:08;95399.28;;;-0.98;44.45
77871;BME280;67067;46.850;7.578;2023-01-28T02:08:13;95403.22;;;-1.02;44.70
77871;BME280;67067;46.850;7.578;2023-01-28T02:09:28;95390.41;;;-1.03;44.62
77871;BME280;67067;46.850;7.578;2023-01-28T02:10:29;95395.25;;;-1.00;44.62
77871;BME280;67067;46.850;7.578;2023-01-28T02:11:33;95395.03;;;-1.14;44.92
77871;BME280;67067;46.850;7.578;2023-01-28T02:12:39;95394.63;;;-1.02;44.82
77871;BME280;67067;46.850;7.578;2023-01-28T02:13:47;95397.16;;;-0.94;44.58
77871;BME280;67067;46.850;7.578;2023-01-28T02:15:09;95398.84;;;-1.01;44.60
77871;BME280;67067;46.850;7.578;2023-01-28T02:16:13;95397.84;;;-1.00;44.54
77871;BME280;67067;46.850;7.578;2023-01-28T02:17:17;95396.19;;;-0.93;44.03
77871;BME280;67067;46.850;7.578;2023-01-28T02:18:17;95395.53;;;-0.95;44.37
77871;BME280;67067;46.850;7.578;2023-01-28T02:19:18;95395.81;;;-0.90;44.49
77871;BME280;67067;46.850;7.578;2023-01-28T02:20:51;95399.41;;;-0.91;44.22
77871;BME280;67067;46.850;7.578;2023-01-28T02:24:51;95395.94;;;-0.83;44.60
77871;BME280;67067;46.850;7.578;2023-01-28T02:30:06;95386.22;;;-0.89;44.74
77871;BME280;67067;46.850;7.578;2023-01-28T02:31:14;95389.94;;;-0.84;44.72
77871;BME280;67067;46.850;7.578;2023-01-28T02:32:23;95383.38;;;-0.79;44.48
77871;BME280;67067;46.850;7.578;2023-01-28T02:33:51;95396.38;;;-0.79;44.17
77871;BME280;67067;46.850;7.578;2023-01-28T02:34:54;95391.19;;;-0.79;44.03
77871;BME280;67067;46.850;7.578;2023-01-28T02:36:03;95387.31;;;-0.84;44.07
77871;BME280;67067;46.850;7.578;2023-01-28T02:38:40;95387.69;;;-0.87;44.08
77871;BME280;67067;46.850;7.578;2023-01-28T02:39:47;95389.00;;;-0.91;44.11
77871;BME280;67067;46.850;7.578;2023-01-28T02:40:53;95385.91;;;-0.86;43.94
77871;BME280;67067;46.850;7.578;2023-01-28T02:42:09;95380.94;;;-0.96;44.23
77871;BME280;67067;46.850;7.578;2023-01-28T02:43:13;95377.78;;;-0.91;44.11
77871;BME280;67067;46.850;7.578;2023-01-28T02:44:14;95376.66;;;-0.89;43.79
77871;BME280;67067;46.850;7.578;2023-01-28T02:45:19;95376.19;;;-0.92;43.90
77871;BME280;67067;46.850;7.578;2023-01-28T02:47:45;95377.50;;;-0.97;44.14
77871;BME280;67067;46.850;7.578;2023-01-28T02:48:59;95373.78;;;-0.94;43.72
77871;BME280;67067;46.850;7.578;2023-01-28T02:50:12;95382.44;;;-1.02;44.16
77871;BME280;67067;46.850;7.578;2023-01-28T02:53:56;95388.78;;;-1.04;43.93
77871;BME280;67067;46.850;7.578;2023-01-28T02:56:11;95379.09;;;-1.11;44.07
77871;BME280;67067;46.850;7.578;2023-01-28T02:57:25;95383.66;;;-1.13;44.30
77871;BME280;67067;46.850;7.578;2023-01-28T02:59:08;95385.34;;;-1.20;44.30
77871;BME280;67067;46.850;7.578;2023-01-28T03:00:48;95393.78;;;-1.18;44.32
77871;BME280;67067;46.850;7.578;2023-01-28T03:01:53;95388.66;;;-1.11;44.13
77871;BME280;67067;46.850;7.578;2023-01-28T03:04:13;95391.97;;;-1.17;44.36
77871;BME280;67067;46.850;7.578;2023-01-28T03:06:34;95391.84;;;-1.24;44.47
77871;BME280;67067;46.850;7.578;2023-01-28T03:07:38;95397.34;;;-1.19;44.46
77871;BME280;67067;46.850;7.578;2023-01-28T03:10:04;95398.97;;;-1.18;44.52
77871;BME280;67067;46.850;7.578;2023-01-28T03:11:07;95395.53;;;-1.18;44.45
77871;BME280;67067;46.850;7.578;2023-01-28T03:12:27;95399.06;;;-1.11;44.13
77871;BME280;67067;46.850;7.578;2023-01-28T03:13:48;95393.78;;;-1.18;44.25
77871;BME280;67067;46.850;7.578;2023-01-28T03:15:14;95395.38;;;-1.17;44.32
77871;BME280;67067;46.850;7.578;2023-01-28T03:16:34;95396.38;;;-1.18;44.29
77871;BME280;67067;46.850;7.578;2023-01-28T03:19:26;95387.94;;;-1.20;44.31
77871;BME280;67067;46.850;7.578;2023-01-28T03:22:23;95385.00;;;-1.17;44.52
77871;BME280;67067;46.850;7.578;2023-01-28T03:23:46;95390.34;;;-1.18;44.49
77871;BME280;67067;46.850;7.578;2023-01-28T03:25:08;95389.88;;;-1.22;44.64
77871;BME280;67067;46.850;7.578;2023-01-28T03:26:30;95384.66;;;-1.14;44.32
77871;BME280;67067;46.850;7.578;2023-01-28T03:27:56;95389.50;;;-1.11;44.31
77871;BME280;67067;46.850;7.578;2023-01-28T03:29:18;95394.84;;;-1.12;44.46
77871;BME280;67067;46.850;7.578;2023-01-28T03:30:48;95401.50;;;-1.09;44.56
77871;BME280;67067;46.850;7.578;2023-01-28T03:32:18;95394.22;;;-1.14;44.93
77871;BME280;67067;46.850;7.578;2023-01-28T03:33:39;95398.91;;;-1.09;44.91
77871;BME280;67067;46.850;7.578;2023-01-28T03:34:58;95398.63;;;-1.15;45.04
77871;BME280;67067;46.850;7.578;2023-01-28T03:36:18;95395.38;;;-1.17;45.31
77871;BME280;67067;46.850;7.578;2023-01-28T03:37:37;95397.66;;;-1.22;45.47
77871;BME280;67067;46.850;7.578;2023-01-28T03:38:47;95396.41;;;-1.26;45.43
77871;BME280;67067;46.850;7.578;2023-01-28T03:39:48;95403.84;;;-1.23;45.30
77871;BME280;67067;46.850;7.578;2023-01-28T03:40:57;95394.75;;;-1.19;45.17
77871;BME280;67067;46.850;7.578;2023-01-28T03:42:08;95398.84;;;-1.25;45.23
77871;BME280;67067;46.850;7.578;2023-01-28T03:43:15;95404.16;;;-1.18;45.26
77871;BME280;67067;46.850;7.578;2023-01-28T03:44:18;95407.75;;;-1.19;45.36
77871;BME280;67067;46.850;7.578;2023-01-28T03:45:37;95404.03;;;-1.25;45.48
77871;BME280;67067;46.850;7.578;2023-01-28T03:46:41;95402.41;;;-1.26;45.48
77871;BME280;67067;46.850;7.578;2023-01-28T03:47:41;95408.41;;;-1.25;45.64
77871;BME280;67067;46.850;7.578;2023-01-28T03:48:45;95407.59;;;-1.26;45.64
77871;BME280;67067;46.850;7.578;2023-01-28T03:49:51;95400.09;;;-1.20;45.71
77871;BME280;67067;46.850;7.578;2023-01-28T03:50:55;95399.94;;;-1.19;45.62
77871;BME280;67067;46.850;7.578;2023-01-28T03:52:01;95397.34;;;-1.19;45.49
77871;BME280;67067;46.850;7.578;2023-01-28T03:53:01;95400.75;;;-1.18;45.47
77871;BME280;67067;46.850;7.578;2023-01-28T03:54:22;95404.19;;;-1.26;45.69
77871;BME280;67067;46.850;7.578;2023-01-28T03:55:25;95400.22;;;-1.37;45.98
77871;BME280;67067;46.850;7.578;2023-01-28T03:56:26;95398.59;;;-1.38;46.22
77871;BME280;67067;46.850;7.578;2023-01-28T03:57:29;95400.22;;;-1.37;46.20
77871;BME280;67067;46.850;7.578;2023-01-28T03:58:32;95404.44;;;-1.36;46.22
77871;BME280;67067;46.850;7.578;2023-01-28T03:59:52;95404.59;;;-1.37;45.87
77871;BME280;67067;46.850;7.578;2023-01-28T04:00:53;95401.84;;;-1.36;45.78
77871;BME280;67067;46.850;7.578;2023-01-28T04:01:56;95395.81;;;-1.36;45.95
77871;BME280;67067;46.850;7.578;2023-01-28T04:02:57;95400.66;;;-1.33;45.88
77871;BME280;67067;46.850;7.578;2023-01-28T04:03:58;95406.34;;;-1.30;45.79
77871;BME280;67067;46.850;7.578;2023-01-28T04:05:01;95406.16;;;-1.28;45.71
77871;BME280;67067;46.850;7.578;2023-01-28T04:06:08;95401.78;;;-1.28;45.88
77871;BME280;67067;46.850;7.578;2023-01-28T04:07:31;95405.50;;;-1.30;45.86
77871;BME280;67067;46.850;7.578;2023-01-28T04:08:53;95401.00;;;-1.36;46.05
77871;BME280;67067;46.850;7.578;2023-01-28T04:10:04;95402.63;;;-1.35;45.96
77871;BME280;67067;46.850;7.578;2023-01-28T04:11:22;95401.53;;;-1.41;46.06
77871;BME280;67067;46.850;7.578;2023-01-28T04:12:25;95400.72;;;-1.42;46.34
77871;BME280;67067;46.850;7.578;2023-01-28T04:13:28;95400.22;;;-1.37;46.12
77871;BME280;67067;46.850;7.578;2023-01-28T04:14:31;95397.47;;;-1.44;46.60
77871;BME280;67067;46.850;7.578;2023-01-28T04:15:39;95400.03;;;-1.35;46.30
77871;BME280;67067;46.850;7.578;2023-01-28T04:16:40;95398.88;;;-1.33;46.25
77871;BME280;67067;46.850;7.578;2023-01-28T04:17:45;95399.88;;;-1.34;46.24
77871;BME280;67067;46.850;7.578;2023-01-28T04:18:48;95399.03;;;-1.34;46.37
77871;BME280;67067;46.850;7.578;2023-01-28T04:19:52;95401.47;;;-1.33;46.39
77871;BME280;67067;46.850;7.578;2023-01-28T04:20:54;95404.94;;;-1.41;46.69
77871;BME280;67067;46.850;7.578;2023-01-28T04:21:55;95402.34;;;-1.41;46.77
77871;BME280;67067;46.850;7.578;2023-01-28T04:22:56;95398.13;;;-1.42;46.86
77871;BME280;67067;46.850;7.578;2023-01-28T04:24:01;95396.69;;;-1.44;46.88
77871;BME280;67067;46.850;7.578;2023-01-28T04:25:01;95401.94;;;-1.52;46.99
77871;BME280;67067;46.850;7.578;2023-01-28T04:26:04;95396.16;;;-1.40;46.64
77871;BME280;67067;46.850;7.578;2023-01-28T04:27:04;95401.84;;;-1.36;46.48
77871;BME280;67067;46.850;7.578;2023-01-28T04:28:06;95395.19;;;-1.38;46.76
77871;BME280;67067;46.850;7.578;2023-01-28T04:29:06;95400.66;;;-1.33;46.65
77871;BME280;67067;46.850;7.578;2023-01-28T04:30:09;95405.75;;;-1.40;46.82
77871;BME280;67067;46.850;7.578;2023-01-28T04:31:16;95401.00;;;-1.36;47.04
77871;BME280;67067;46.850;7.578;2023-01-28T04:32:30;95399.38;;;-1.37;46.58
77871;BME280;67067;46.850;7.578;2023-01-28T04:33:52;95406.88;;;-1.43;46.69
77871;BME280;67067;46.850;7.578;2023-01-28T04:35:12;95405.91;;;-1.42;46.75
77871;BME280;67067;46.850;7.578;2023-01-28T04:36:29;95408.16;;;-1.38;46.75
77871;BME280;67067;46.850;7.578;2023-01-28T04:37:41;95410.31;;;-1.42;46.87
77871;BME280;67067;46.850;7.578;2023-01-28T04:38:48;95407.38;;;-1.39;46.85
77871;BME280;67067;46.850;7.578;2023-01-28T04:40:14;95413.50;;;-1.32;46.70
77871;BME280;67067;46.850;7.578;2023-01-28T04:41:36;95413.31;;;-1.30;46.47
77871;BME280;67067;46.850;7.578;2023-01-28T04:42:55;95419.13;;;-1.28;46.52
77871;BME280;67067;46.850;7.578;2023-01-28T04:44:18;95418.34;;;-1.29;46.50
77871;BME280;67067;46.850;7.578;2023-01-28T04:45:50;95415.41;;;-1.26;46.25
77871;BME280;67067;46.850;7.578;2023-01-28T04:47:05;95419.78;;;-1.26;46.24
77871;BME280;67067;46.850;7.578;2023-01-28T04:48:17;95415.22;;;-1.24;46.24
77871;BME280;67067;46.850;7.578;2023-01-28T04:49:36;95410.34;;;-1.19;46.09
77871;BME280;67067;46.850;7.578;2023-01-28T04:50:52;95413.03;;;-1.12;46.03
77871;BME280;67067;46.850;7.578;2023-01-28T04:52:05;95424.41;;;-1.13;45.94
77871;BME280;67067;46.850;7.578;2023-01-28T04:53:25;95418.72;;;-1.08;45.60
77871;BME280;67067;46.850;7.578;2023-01-28T04:54:32;95418.72;;;-1.08;45.38
77871;BME280;67067;46.850;7.578;2023-01-28T04:55:36;95419.97;;;-1.04;45.44
77871;BME280;67067;46.850;7.578;2023-01-28T04:56:37;95415.06;;;-0.99;45.61
77871;BME280;67067;46.850;7.578;2023-01-28T04:57:38;95419.72;;;-0.94;45.31
77871;BME280;67067;46.850;7.578;2023-01-28T04:58:41;95423.78;;;-0.92;45.32
77871;BME280;67067;46.850;7.578;2023-01-28T04:59:46;95415.44;;;-0.87;45.31
77871;BME280;67067;46.850;7.578;2023-01-28T05:00:58;95417.88;;;-0.86;45.30
77871;BME280;67067;46.850;7.578;2023-01-28T05:01:59;95424.34;;;-0.82;45.41
77871;BME280;67067;46.850;7.578;2023-01-28T05:03:00;95422.72;;;-0.83;45.53
77871;BME280;67067;46.850;7.578;2023-01-28T05:04:00;95423.19;;;-0.79;45.51
77871;BME280;67067;46.850;7.578;2023-01-28T05:05:05;95422.03;;;-0.76;45.56
77871;BME280;67067;46.850;7.578;2023-01-28T05:06:43;95424.97;;;-0.79;45.61
77871;BME280;67067;46.850;7.578;2023-01-28T05:07:55;95425.63;;;-0.77;45.55
77871;BME280;67067;46.850;7.578;2023-01-28T05:08:58;95426.53;;;-0.70;45.33
77871;BME280;67067;46.850;7.578;2023-01-28T05:10:01;95431.56;;;-0.69;45.39
77871;BME280;67067;46.850;7.578;2023-01-28T05:11:01;95426.19;;;-0.67;45.21
77871;BME280;67067;46.850;7.578;2023-01-28T05:12:05;95432.66;;;-0.63;45.17
77871;BME280;67067;46.850;7.578;2023-01-28T05:13:10;95431.03;;;-0.64;45.01
77871;BME280;67067;46.850;7.578;2023-01-28T05:14:13;95428.06;;;-0.61;44.98
77871;BME280;67067;46.850;7.578;2023-01-28T05:15:18;95423.84;;;-0.62;45.02
77871;BME280;67067;46.850;7.578;2023-01-28T05:16:20;95431.84;;;-0.63;44.64
77871;BME280;67067;46.850;7.578;2023-01-28T05:17:21;95427.78;;;-0.66;44.50
77871;BME280;67067;46.850;7.578;2023-01-28T05:18:22;95425.84;;;-0.87;44.85
77871;BME280;67067;46.850;7.578;2023-01-28T05:19:35;95431.47;;;-1.30;45.97
77871;BME280;67067;46.850;7.578;2023-01-28T05:20:36;95428.75;;;-1.05;45.65
77871;BME280;67067;46.850;7.578;2023-01-28T05:21:37;95432.34;;;-1.06;45.73
77871;BME280;67067;46.850;7.578;2023-01-28T05:22:42;95432.78;;;-1.03;45.72
77871;BME280;67067;46.850;7.578;2023-01-28T05:23:55;95430.66;;;-0.99;45.43
77871;BME280;67067;46.850;7.578;2023-01-28T05:24:55;95428.84;;;-0.99;45.20
77871;BME280;67067;46.850;7.578;2023-01-28T05:25:57;95431.34;;;-1.05;45.16
77871;BME280;67067;46.850;7.578;2023-01-28T05:26:57;95431.16;;;-1.04;45.25
77871;BME280;67067;46.850;7.578;2023-01-28T05:27:58;95428.41;;;-1.02;45.21
77871;BME280;67067;46.850;7.578;2023-01-28T05:29:01;95431.16;;;-1.04;45.25
77871;BME280;67067;46.850;7.578;2023-01-28T05:30:03;95426.22;;;-1.14;45.47
77871;BME280;67067;46.850;7.578;2023-01-28T05:31:30;95436.72;;;-1.07;45.15
77871;BME280;67067;46.850;7.578;2023-01-28T05:32:34;95431.97;;;-1.03;45.17
77871;BME280;67067;46.850;7.578;2023-01-28T05:33:34;95430.38;;;-1.04;45.23
77871;BME280;67067;46.850;7.578;2023-01-28T05:34:39;95431.34;;;-1.05;45.41
77871;BME280;67067;46.850;7.578;2023-01-28T05:35:44;95431.97;;;-1.03;45.29
77871;BME280;67067;46.850;7.578;2023-01-28T05:36:45;95437.53;;;-1.06;45.37
77871;BME280;67067;46.850;7.578;2023-01-28T05:38:18;95437.88;;;-1.09;45.51
77871;BME280;67067;46.850;7.578;2023-01-28T05:39:18;95434.09;;;-1.07;45.26
77871;BME280;67067;46.850;7.578;2023-01-28T05:40:19;95442.19;;;-1.02;45.14
77871;BME280;67067;46.850;7.578;2023-01-28T05:41:20;95440.97;;;-1.14;45.34
77871;BME280;67067;46.850;7.578;2023-01-28T05:42:26;95451.03;;;-1.11;45.38
77871;BME280;67067;46.850;7.578;2023-01-28T05:43:36;95444.75;;;-1.25;45.85
77871;BME280;67067;46.850;7.578;2023-01-28T05:44:50;95442.31;;;-1.18;45.61
77871;BME280;67067;46.850;7.578;2023-01-28T05:46:08;95441.88;;;-1.30;45.89
77871;BME280;67067;46.850;7.578;2023-01-28T05:47:29;95449.63;;;-1.22;45.61
77871;BME280;67067;46.850;7.578;2023-01-28T05:48:52;95460.84;;;-1.21;45.71
77871;BME280;67067;46.850;7.578;2023-01-28T05:50:21;95450.09;;;-1.18;45.23
77871;BME280;67067;46.850;7.578;2023-01-28T05:51:43;95456.63;;;-1.22;45.51
77871;BME280;67067;46.850;7.578;2023-01-28T05:52:45;95453.84;;;-1.21;45.56
77871;BME280;67067;46.850;7.578;2023-01-28T05:53:54;95450.91;;;-1.18;45.37
77871;BME280;67067;46.850;7.578;2023-01-28T05:54:56;95447.41;;;-1.33;45.55
77871;BME280;67067;46.850;7.578;2023-01-28T05:55:57;95457.88;;;-1.18;45.40
77871;BME280;67067;46.850;7.578;2023-01-28T05:56:57;95461.75;;;-1.14;45.18
77871;BME280;67067;46.850;7.578;2023-01-28T05:58:00;95458.53;;;-1.16;45.13
77871;BME280;67067;46.850;7.578;2023-01-28T05:59:02;95459.91;;;-1.29;45.54
77871;BME280;67067;46.850;7.578;2023-01-28T06:00:04;95466.22;;;-1.31;45.44
77871;BME280;67067;46.850;7.578;2023-01-28T06:01:14;95465.94;;;-1.36;45.57
77871;BME280;67067;46.850;7.578;2023-01-28T06:02:25;95457.13;;;-1.27;45.34
77871;BME280;67067;46.850;7.578;2023-01-28T06:03:29;95457.75;;;-1.25;45.49
77871;BME280;67067;46.850;7.578;2023-01-28T06:04:30;95470.88;;;-1.18;45.71
77871;BME280;67067;46.850;7.578;2023-01-28T06:05:34;95460.97;;;-1.15;45.52
77871;BME280;67067;46.850;7.578;2023-01-28T06:06:35;95468.13;;;-1.17;45.63
77871;BME280;67067;46.850;7.578;2023-01-28T06:07:41;95463.94;;;-1.26;45.74
77871;BME280;67067;46.850;7.578;2023-01-28T06:08:46;95472.69;;;-1.19;45.69
77871;BME280;67067;46.850;7.578;2023-01-28T06:09:50;95460.97;;;-1.15;45.95
77871;BME280;67067;46.850;7.578;2023-01-28T06:10:53;95471.00;;;-1.12;46.08
77871;BME280;67067;46.850;7.578;2023-01-28T06:11:59;95469.06;;;-1.09;46.34
77871;BME280;67067;46.850;7.578;2023-01-28T06:12:59;95465.28;;;-1.07;46.29
77871;BME280;67067;46.850;7.578;2023-01-28T06:14:15;95467.28;;;-1.49;46.72